To NAV CANADA Home Page Login to a new session Search on AWWS site Feedback and Comments Disclaimer Vers la page française équivalente Tips FAQ What's new on the site To the Forecasts and Observations / NOTAM section To "File a Flight Plan" website Publications and other links Update of the User's profile FIC Telephone Numbers My Weather Data Folder Route Weather Data Regional Weather Data Local Weather Data To the Forecasts and Observations / NOTAM section
Request Generated 02/11/2016 at 00:09:20 UTC . Weather information available at that time is displayed.

METAR/TAF

ISLAND LAKE/MB    

METAR CYIV 110000Z 28004KT 15SM FEW020 M23/M26 A3024 RMK SC1 SLP278=
METAR CYIV 102300Z 29006KT 15SM FEW020 M22/M25 A3024 RMK SC1 SLP278=
SPECI CYIV 102236Z 27005KT 15SM FEW020 M22/M25 A3024 RMK SC2 SLP277=
METAR CYIV 102200Z 29007KT 15SM -SN BKN020 M20/M24 A3024 RMK SC5
SLP276=

TAF CYIV 101838Z 1019/1107 VRB03KT P6SM SCT020 TEMPO 1019/1103 5SM
-SN BKN020
BECMG 1020/1022 30007KT
FM110300 29007KT P6SM SCT025
RMK NXT FCST BY 110100Z=
Your time UTC time
Weather data provided by Environment Canada and NAV CANADA